createdAt,value
2018-09-10T00:02:06.151Z,100608.00
2018-09-10T00:04:37.769Z,100601.00
2018-09-10T00:07:12.535Z,100586.00
2018-09-10T00:09:45.160Z,100572.00
2018-09-10T00:12:16.015Z,100574.00
2018-09-10T00:14:46.911Z,100589.00
2018-09-10T00:17:16.853Z,100577.00
2018-09-10T00:19:47.226Z,100587.00
2018-09-10T00:22:17.923Z,100597.00
2018-09-10T00:24:48.093Z,100594.00
2018-09-10T00:27:18.486Z,100601.00
2018-09-10T00:29:48.573Z,100608.00
2018-09-10T00:32:19.301Z,100606.00
2018-09-10T00:34:49.821Z,100613.00
2018-09-10T00:37:22.851Z,100619.00
2018-09-10T00:39:52.961Z,100630.00
2018-09-10T00:42:24.332Z,100618.00
2018-09-10T00:44:54.310Z,100619.00
2018-09-10T00:47:25.576Z,100627.00
2018-09-10T00:49:56.065Z,100622.00
2018-09-10T00:52:26.228Z,100608.00
2018-09-10T00:54:56.683Z,100608.00
2018-09-10T00:57:26.829Z,100611.00
2018-09-10T00:59:56.863Z,100611.00
2018-09-10T01:02:27.111Z,100634.00
2018-09-10T01:04:57.166Z,100627.00
2018-09-10T01:07:27.533Z,100628.00
2018-09-10T01:09:58.725Z,100626.00
2018-09-10T01:12:28.784Z,100623.00
2018-09-10T01:14:59.047Z,100615.00
2018-09-10T01:17:29.330Z,100611.00
2018-09-10T01:20:00.032Z,100600.00
2018-09-10T01:22:30.470Z,100606.00
2018-09-10T01:25:01.399Z,100611.00
2018-09-10T01:27:31.465Z,100611.00
2018-09-10T01:30:01.678Z,100618.00
2018-09-10T01:32:34.437Z,100634.00
2018-09-10T01:35:06.395Z,100624.00
2018-09-10T01:37:37.362Z,100629.00
2018-09-10T01:40:07.840Z,100625.00
2018-09-10T01:42:39.050Z,100623.00
2018-09-10T01:45:11.127Z,100629.00
2018-09-10T01:47:43.174Z,100617.00
2018-09-10T01:50:17.194Z,100611.00
2018-09-10T01:52:49.232Z,100595.00
2018-09-10T01:55:19.410Z,100604.00
2018-09-10T01:57:50.954Z,100616.00
2018-09-10T02:00:21.672Z,100619.00
2018-09-10T02:02:51.699Z,100617.00
2018-09-10T02:05:22.299Z,100624.00
2018-09-10T02:07:52.896Z,100630.00
2018-09-10T02:10:23.353Z,100623.00
2018-09-10T02:12:53.926Z,100622.00
2018-09-10T02:15:24.133Z,100617.00
2018-09-10T02:17:58.095Z,100619.00
2018-09-10T02:20:28.206Z,100616.00
2018-09-10T02:22:58.201Z,100614.00
2018-09-10T02:25:28.379Z,100612.00
2018-09-10T02:27:58.644Z,100617.00
2018-09-10T02:30:29.189Z,100614.00
2018-09-10T02:33:00.335Z,100607.00
2018-09-10T02:35:30.550Z,100603.00
2018-09-10T02:38:01.066Z,100602.00
2018-09-10T02:40:32.089Z,100597.00
2018-09-10T02:43:02.430Z,100598.00
2018-09-10T02:45:33.227Z,100607.00
2018-09-10T02:48:03.376Z,100620.00
2018-09-10T02:50:33.875Z,100625.00
2018-09-10T02:53:04.071Z,100624.00
2018-09-10T02:55:34.019Z,100622.00
2018-09-10T02:58:04.307Z,100635.00
2018-09-10T03:00:35.756Z,100626.00
2018-09-10T03:03:07.360Z,100629.00
2018-09-10T03:05:40.564Z,100629.00
2018-09-10T03:08:11.481Z,100629.00
2018-09-10T03:10:41.562Z,100626.00
2018-09-10T03:13:12.498Z,100625.00
2018-09-10T03:15:43.286Z,100619.00
2018-09-10T03:18:15.100Z,100612.00
2018-09-10T03:20:45.141Z,100615.00
2018-09-10T03:23:16.768Z,100609.00
2018-09-10T03:25:47.003Z,100610.00
2018-09-10T03:28:17.166Z,100614.00
2018-09-10T03:30:47.468Z,100617.00
2018-09-10T03:33:18.631Z,100615.00
2018-09-10T03:35:49.686Z,100605.00
2018-09-10T03:38:20.205Z,100598.00
2018-09-10T03:40:50.423Z,100602.00
2018-09-10T03:43:22.182Z,100603.00
2018-09-10T03:45:52.489Z,100598.00
2018-09-10T03:48:24.195Z,100591.00
2018-09-10T03:50:54.539Z,100579.00
2018-09-10T03:53:31.623Z,100593.00
2018-09-10T03:56:02.143Z,100583.00
2018-09-10T03:58:32.202Z,100579.00
2018-09-10T04:01:03.189Z,100577.00
2018-09-10T04:03:34.872Z,100567.00
2018-09-10T04:06:09.755Z,100578.00
2018-09-10T04:08:40.666Z,100593.00
2018-09-10T04:11:11.878Z,100587.00
2018-09-10T04:13:42.275Z,100591.00
2018-09-10T04:16:12.465Z,100583.00
2018-09-10T04:18:42.487Z,100589.00
2018-09-10T04:21:13.391Z,100582.00
2018-09-10T04:23:43.873Z,100596.00
2018-09-10T04:26:14.094Z,100595.00
2018-09-10T04:28:44.485Z,100606.00
2018-09-10T04:31:14.473Z,100598.00
2018-09-10T04:33:45.591Z,100592.00
2018-09-10T04:36:17.578Z,100593.00
2018-09-10T04:38:47.640Z,100593.00
2018-09-10T04:41:17.875Z,100590.00
2018-09-10T04:43:48.570Z,100597.00
2018-09-10T04:46:18.510Z,100589.00
2018-09-10T04:48:48.724Z,100572.00
2018-09-10T04:51:18.904Z,100586.00
2018-09-10T04:53:49.107Z,100589.00
2018-09-10T04:56:19.184Z,100593.00
2018-09-10T04:58:49.542Z,100592.00
2018-09-10T05:01:20.094Z,100600.00
2018-09-10T05:03:51.613Z,100603.00
2018-09-10T05:06:22.093Z,100586.00
2018-09-10T05:08:52.245Z,100594.00
2018-09-10T05:11:24.160Z,100595.00
2018-09-10T05:13:55.395Z,100600.00
2018-09-10T05:16:27.458Z,100601.00
2018-09-10T05:18:57.648Z,100595.00
2018-09-10T05:21:27.886Z,100609.00
2018-09-10T05:23:59.353Z,100612.00
2018-09-10T05:26:30.832Z,100623.00
2018-09-10T05:29:02.688Z,100617.00
2018-09-10T05:31:33.073Z,100589.00
2018-09-10T05:34:04.023Z,100621.00
2018-09-10T05:36:35.393Z,100623.00
2018-09-10T05:39:07.239Z,100615.00
2018-09-10T05:41:37.406Z,100612.00
2018-09-10T05:44:07.859Z,100623.00
2018-09-10T05:46:38.722Z,100634.00
2018-09-10T05:49:08.786Z,100637.00
2018-09-10T05:51:40.191Z,100632.00
2018-09-10T05:54:11.026Z,100626.00
2018-09-10T05:56:42.953Z,100629.00
2018-09-10T05:59:13.090Z,100629.00
2018-09-10T06:01:45.249Z,100622.00
2018-09-10T06:04:15.568Z,100638.00
2018-09-10T06:06:45.885Z,100637.00
2018-09-10T06:09:16.136Z,100637.00
2018-09-10T06:11:46.144Z,100633.00
2018-09-10T06:14:17.060Z,100643.00
2018-09-10T06:16:47.264Z,100650.00
2018-09-10T06:19:17.509Z,100652.00
2018-09-10T06:21:50.173Z,100666.00
2018-09-10T06:24:21.408Z,100666.00
2018-09-10T06:26:52.055Z,100654.00
2018-09-10T06:29:23.169Z,100664.00
2018-09-10T06:31:54.841Z,100670.00
2018-09-10T06:34:25.901Z,100667.00
2018-09-10T06:36:55.991Z,100661.00
2018-09-10T06:39:27.045Z,100663.00
2018-09-10T06:41:57.737Z,100652.00
2018-09-10T06:44:28.543Z,100639.00
2018-09-10T06:46:59.917Z,100657.00
2018-09-10T06:49:30.982Z,100674.00
2018-09-10T06:52:02.149Z,100674.00
2018-09-10T06:54:33.063Z,100669.00
2018-09-10T06:57:03.888Z,100679.00
2018-09-10T06:59:34.941Z,100686.00
2018-09-10T07:02:05.789Z,100676.00
2018-09-10T07:04:36.522Z,100682.00
2018-09-10T07:07:07.213Z,100684.00
2018-09-10T07:09:37.698Z,100676.00
2018-09-10T07:12:07.688Z,100672.00
2018-09-10T07:14:37.895Z,100666.00
2018-09-10T07:17:08.476Z,100668.00
2018-09-10T07:19:39.081Z,100683.00
2018-09-10T07:22:09.285Z,100683.00
2018-09-10T07:24:39.684Z,100679.00
2018-09-10T07:27:10.327Z,100675.00
2018-09-10T07:29:41.494Z,100689.00
2018-09-10T07:32:11.794Z,100696.00
2018-09-10T07:34:42.184Z,100703.00
2018-09-10T07:37:12.455Z,100718.00
2018-09-10T07:39:42.649Z,100733.00
2018-09-10T07:42:14.338Z,100740.00
2018-09-10T07:44:45.489Z,100737.00
2018-09-10T07:47:16.108Z,100718.00
2018-09-10T07:49:46.591Z,100697.00
2018-09-10T07:52:16.776Z,100656.00
2018-09-10T07:54:47.568Z,100660.00
2018-09-10T07:57:18.027Z,100643.00
2018-09-10T07:59:48.122Z,100636.00
2018-09-10T08:02:18.313Z,100646.00
2018-09-10T08:04:48.626Z,100647.00
2018-09-10T08:07:18.934Z,100655.00
2018-09-10T08:09:49.063Z,100663.00
2018-09-10T08:12:19.410Z,100673.00
2018-09-10T08:14:50.506Z,100675.00
2018-09-10T08:17:20.596Z,100677.00
2018-09-10T08:19:50.896Z,100687.00
2018-09-10T08:22:22.119Z,100684.00
2018-09-10T08:24:52.252Z,100674.00
2018-09-10T08:27:22.580Z,100683.00
2018-09-10T08:29:53.685Z,100685.00
2018-09-10T08:32:24.108Z,100700.00
2018-09-10T08:34:55.172Z,100701.00
2018-09-10T08:37:25.346Z,100702.00
2018-09-10T08:39:55.263Z,100714.00
2018-09-10T08:42:25.189Z,100726.00
2018-09-10T08:44:55.294Z,100728.00
2018-09-10T08:47:25.445Z,100721.00
2018-09-10T08:49:56.000Z,100697.00
2018-09-10T08:52:26.235Z,100676.00
2018-09-10T08:54:57.483Z,100678.00
2018-09-10T08:57:27.772Z,100602.00
2018-09-10T08:59:57.987Z,100682.00
2018-09-10T09:02:28.152Z,100690.00
2018-09-10T09:04:58.382Z,100699.00
2018-09-10T09:07:28.805Z,100711.00
2018-09-10T09:09:59.206Z,100711.00
2018-09-10T09:12:30.024Z,100706.00
2018-09-10T09:15:00.538Z,100692.00
2018-09-10T09:17:31.636Z,100695.00
2018-09-10T09:20:01.808Z,100698.00
2018-09-10T09:22:31.905Z,100709.00
2018-09-10T09:25:02.149Z,100714.00
2018-09-10T09:27:32.703Z,100715.00
2018-09-10T09:30:03.250Z,100732.00
2018-09-10T09:32:33.402Z,100744.00
2018-09-10T09:35:03.973Z,100740.00
2018-09-10T09:37:39.080Z,100723.00
2018-09-10T09:40:14.647Z,100717.00
2018-09-10T09:42:50.062Z,100726.00
2018-09-10T09:45:25.408Z,100721.00
2018-09-10T09:47:55.546Z,100703.00
2018-09-10T09:50:25.568Z,100703.00
2018-09-10T09:52:56.008Z,100715.00
2018-09-10T09:55:26.204Z,100729.00
2018-09-10T09:57:56.902Z,100715.00
2018-09-10T10:00:32.097Z,100721.00
2018-09-10T10:03:07.240Z,100722.00
2018-09-10T10:05:37.503Z,100720.00
2018-09-10T10:08:08.026Z,100707.00
2018-09-10T10:10:38.628Z,100708.00
2018-09-10T10:13:08.951Z,100703.00
2018-09-10T10:15:39.080Z,100710.00
2018-09-10T10:18:09.401Z,100696.00
2018-09-10T10:20:40.047Z,100703.00
2018-09-10T10:23:10.142Z,100712.00
2018-09-10T10:25:40.252Z,100719.00
2018-09-10T10:28:10.809Z,100716.00
2018-09-10T10:30:41.599Z,100705.00
2018-09-10T10:33:11.661Z,100706.00
2018-09-10T10:35:42.139Z,100710.00
2018-09-10T10:38:12.756Z,100713.00
2018-09-10T10:40:43.963Z,100713.00
2018-09-10T10:43:14.392Z,100693.00
2018-09-10T10:45:44.570Z,100719.00
2018-09-10T10:48:15.711Z,100697.00
2018-09-10T10:50:46.549Z,100715.00
2018-09-10T10:53:17.383Z,100688.00
2018-09-10T10:55:48.189Z,100683.00
2018-09-10T10:58:19.495Z,100677.00
2018-09-10T11:00:50.305Z,100688.00
2018-09-10T11:03:20.632Z,100685.00
2018-09-10T11:05:51.274Z,100670.00
2018-09-10T11:08:21.864Z,100678.00
2018-09-10T11:10:52.878Z,100672.00
2018-09-10T11:13:23.416Z,100668.00
2018-09-10T11:15:54.071Z,100668.00
2018-09-10T11:18:24.561Z,100684.00
2018-09-10T11:20:54.762Z,100683.00
2018-09-10T11:23:25.328Z,100698.00
2018-09-10T11:26:02.287Z,100690.00
2018-09-10T11:28:32.548Z,100676.00
2018-09-10T11:31:03.645Z,100679.00
2018-09-10T11:33:33.763Z,100676.00
2018-09-10T11:36:03.910Z,100698.00
2018-09-10T11:38:33.894Z,100700.00
2018-09-10T11:41:04.123Z,100702.00
2018-09-10T11:43:34.424Z,100692.00
2018-09-10T11:46:04.853Z,100690.00
2018-09-10T11:48:36.146Z,100700.00
2018-09-10T11:51:06.525Z,100680.00
2018-09-10T11:53:36.748Z,100684.00
2018-09-10T11:56:06.986Z,100683.00
2018-09-10T11:58:37.338Z,100674.00
2018-09-10T12:01:07.585Z,100675.00
2018-09-10T12:03:37.992Z,100684.00
2018-09-10T12:06:08.165Z,100670.00
2018-09-10T12:08:38.160Z,100669.00
2018-09-10T12:11:09.335Z,100690.00
2018-09-10T12:13:39.659Z,100695.00
2018-09-10T12:16:10.559Z,100693.00
2018-09-10T12:18:40.679Z,100705.00
2018-09-10T12:21:10.699Z,100679.00
2018-09-10T12:23:40.802Z,100660.00
2018-09-10T12:26:11.313Z,100653.00
2018-09-10T12:28:41.713Z,100655.00
2018-09-10T12:31:12.491Z,100677.00
2018-09-10T12:33:42.597Z,100672.00
2018-09-10T12:36:13.609Z,100675.00
2018-09-10T12:38:44.280Z,100684.00
2018-09-10T12:41:15.011Z,100680.00
2018-09-10T12:43:45.490Z,100682.00
2018-09-10T12:46:15.620Z,100687.00
2018-09-10T12:48:45.960Z,100695.00
2018-09-10T12:51:15.977Z,100713.00
2018-09-10T12:53:46.200Z,100702.00
2018-09-10T12:56:17.291Z,100698.00
2018-09-10T12:58:47.859Z,100699.00
2018-09-10T13:01:18.007Z,100696.00
2018-09-10T13:03:48.357Z,100699.00
2018-09-10T13:06:18.556Z,100702.00
2018-09-10T13:08:48.939Z,100709.00
2018-09-10T13:11:19.197Z,100699.00
2018-09-10T13:13:49.909Z,100702.00
2018-09-10T13:16:20.150Z,100701.00
2018-09-10T13:18:50.411Z,100700.00
2018-09-10T13:21:21.293Z,100691.00
2018-09-10T13:23:51.202Z,100697.00
2018-09-10T13:26:21.160Z,100695.00
2018-09-10T13:28:51.596Z,100682.00
2018-09-10T13:31:21.727Z,100631.00
2018-09-10T13:33:52.618Z,100682.00
2018-09-10T13:36:22.647Z,100663.00
2018-09-10T13:38:53.129Z,100678.00
2018-09-10T13:41:23.720Z,100673.00
2018-09-10T13:43:54.083Z,100671.00
2018-09-10T13:46:24.253Z,100674.00
2018-09-10T13:48:54.603Z,100688.00
2018-09-10T13:51:24.746Z,100699.00
2018-09-10T13:53:55.609Z,100694.00
2018-09-10T13:56:25.638Z,100680.00
2018-09-10T13:58:55.512Z,100700.00
2018-09-10T14:01:25.762Z,100691.00
2018-09-10T14:03:56.265Z,100675.00
2018-09-10T14:06:26.806Z,100672.00
2018-09-10T14:08:56.712Z,100677.00
2018-09-10T14:11:27.409Z,100680.00
2018-09-10T14:13:57.502Z,100669.00
2018-09-10T14:16:27.828Z,100666.00
2018-09-10T14:18:58.979Z,100674.00
2018-09-10T14:21:29.743Z,100667.00
2018-09-10T14:24:00.038Z,100651.00
2018-09-10T14:26:30.315Z,100660.00
2018-09-10T14:29:01.420Z,100652.00
2018-09-10T14:31:31.778Z,100660.00
2018-09-10T14:34:02.026Z,100658.00
2018-09-10T14:36:32.278Z,100651.00
2018-09-10T14:39:02.339Z,100652.00
2018-09-10T14:41:32.643Z,100655.00
2018-09-10T14:44:02.691Z,100660.00
2018-09-10T14:46:32.901Z,100652.00
2018-09-10T14:49:03.708Z,100643.00
2018-09-10T14:51:34.052Z,100646.00
2018-09-10T14:54:04.321Z,100643.00
2018-09-10T14:56:34.947Z,100647.00
2018-09-10T14:59:05.316Z,100650.00
2018-09-10T15:01:35.413Z,100637.00
2018-09-10T15:04:05.436Z,100648.00
2018-09-10T15:06:35.640Z,100632.00
2018-09-10T15:09:09.721Z,100627.00
2018-09-10T15:11:41.531Z,100632.00
2018-09-10T15:14:11.566Z,100632.00
2018-09-10T15:16:43.306Z,100634.00
2018-09-10T15:19:13.974Z,100627.00
2018-09-10T15:21:44.245Z,100616.00
2018-09-10T15:24:14.993Z,100627.00
2018-09-10T15:26:45.927Z,100625.00
2018-09-10T15:29:17.610Z,100622.00
2018-09-10T15:31:48.170Z,100628.00
2018-09-10T15:34:18.365Z,100611.00
2018-09-10T15:36:50.720Z,100615.00
2018-09-10T15:39:21.140Z,100611.00
2018-09-10T15:41:51.454Z,100625.00
2018-09-10T15:44:22.005Z,100599.00
2018-09-10T15:46:52.392Z,100595.00
2018-09-10T15:49:22.571Z,100576.00
2018-09-10T15:51:52.884Z,100568.00
2018-09-10T15:54:24.024Z,100562.00
2018-09-10T15:56:55.467Z,100563.00
2018-09-10T15:59:29.412Z,100548.00
2018-09-10T16:01:59.860Z,100561.00
2018-09-10T16:04:29.992Z,100543.00
2018-09-10T16:07:00.132Z,100529.00
2018-09-10T16:09:30.189Z,100541.00
2018-09-10T16:12:00.400Z,100557.00
2018-09-10T16:14:30.662Z,100546.00
2018-09-10T16:17:01.965Z,100551.00
2018-09-10T16:19:32.128Z,100559.00
2018-09-10T16:22:02.491Z,100554.00
2018-09-10T16:24:33.534Z,100556.00
2018-09-10T16:27:03.570Z,100572.00
2018-09-10T16:29:34.956Z,100554.00
2018-09-10T16:32:05.553Z,100559.00
2018-09-10T16:34:35.571Z,100549.00
2018-09-10T16:37:06.587Z,100539.00
2018-09-10T16:39:36.568Z,100553.00
2018-09-10T16:42:06.707Z,100562.00
2018-09-10T16:44:36.971Z,100565.00
2018-09-10T16:47:07.370Z,100553.00
2018-09-10T16:49:38.031Z,100537.00
2018-09-10T16:52:08.107Z,100535.00
2018-09-10T16:54:38.168Z,100521.00
2018-09-10T16:57:08.434Z,100533.00
2018-09-10T16:59:39.626Z,100544.00
2018-09-10T17:02:10.315Z,100544.00
2018-09-10T17:04:41.200Z,100539.00
2018-09-10T17:07:11.422Z,100526.00
2018-09-10T17:09:41.578Z,100530.00
2018-09-10T17:12:11.720Z,100533.00
2018-09-10T17:14:42.632Z,100541.00
2018-09-10T17:17:13.165Z,100545.00
2018-09-10T17:19:44.639Z,100529.00
2018-09-10T17:22:14.716Z,100528.00
2018-09-10T17:24:46.201Z,100523.00
2018-09-10T17:27:16.951Z,100510.00
2018-09-10T17:29:47.348Z,100517.00
2018-09-10T17:32:18.921Z,100528.00
2018-09-10T17:34:49.491Z,100520.00
2018-09-10T17:37:19.698Z,100513.00
2018-09-10T17:39:50.025Z,100510.00
2018-09-10T17:42:20.148Z,100509.00
2018-09-10T17:44:51.314Z,100504.00
2018-09-10T17:47:22.747Z,100505.00
2018-09-10T17:49:53.298Z,100501.00
2018-09-10T17:52:23.917Z,100499.00
2018-09-10T17:54:54.458Z,100514.00
2018-09-10T17:57:24.603Z,100514.00
2018-09-10T17:59:55.730Z,100511.00
2018-09-10T18:02:26.290Z,100512.00
2018-09-10T18:04:56.660Z,100513.00
2018-09-10T18:07:29.005Z,100507.00
2018-09-10T18:09:59.554Z,100494.00
2018-09-10T18:12:29.506Z,100495.00
2018-09-10T18:14:59.653Z,100490.00
2018-09-10T18:17:30.968Z,100507.00
2018-09-10T18:20:03.467Z,100496.00
2018-09-10T18:22:33.469Z,100495.00
2018-09-10T18:25:05.624Z,100487.00
2018-09-10T18:27:36.428Z,100487.00
2018-09-10T18:30:07.919Z,100499.00
2018-09-10T18:32:38.568Z,100497.00
2018-09-10T18:35:09.731Z,100497.00
2018-09-10T18:37:41.696Z,100499.00
2018-09-10T18:40:12.190Z,100493.00
2018-09-10T18:42:44.442Z,100476.00
2018-09-10T18:45:14.816Z,100498.00
2018-09-10T18:47:45.357Z,100513.00
2018-09-10T18:50:22.295Z,100502.00
2018-09-10T18:52:53.686Z,100499.00
2018-09-10T18:55:23.831Z,100502.00
2018-09-10T18:57:54.180Z,100497.00
2018-09-10T19:00:24.391Z,100510.00
2018-09-10T19:02:54.655Z,100501.00
2018-09-10T19:05:24.838Z,100495.00
2018-09-10T19:07:55.077Z,100495.00
2018-09-10T19:10:25.287Z,100486.00
2018-09-10T19:12:56.100Z,100491.00
2018-09-10T19:15:26.399Z,100482.00
2018-09-10T19:17:56.966Z,100497.00
2018-09-10T19:20:27.041Z,100505.00
2018-09-10T19:22:57.220Z,100496.00
2018-09-10T19:25:27.241Z,100488.00
2018-09-10T19:27:57.800Z,100490.00
2018-09-10T19:30:28.010Z,100488.00
2018-09-10T19:32:58.200Z,100487.00
2018-09-10T19:35:28.921Z,100501.00
2018-09-10T19:37:59.137Z,100522.00
2018-09-10T19:40:29.055Z,100522.00
2018-09-10T19:42:59.103Z,100519.00
2018-09-10T19:45:29.221Z,100512.00
2018-09-10T19:47:59.522Z,100515.00
2018-09-10T19:50:29.796Z,100506.00
2018-09-10T19:53:00.091Z,100492.00
2018-09-10T19:55:30.374Z,100488.00
2018-09-10T19:58:00.479Z,100492.00
2018-09-10T20:00:37.268Z,100486.00
2018-09-10T20:03:07.477Z,100481.00
2018-09-10T20:05:37.711Z,100476.00
2018-09-10T20:08:08.155Z,100476.00
2018-09-10T20:10:38.787Z,100483.00
2018-09-10T20:13:09.374Z,100475.00
2018-09-10T20:15:39.746Z,100485.00
2018-09-10T20:18:10.069Z,100477.00
2018-09-10T20:20:40.018Z,100475.00
2018-09-10T20:23:10.103Z,100471.00
2018-09-10T20:25:40.448Z,100476.00
2018-09-10T20:28:10.977Z,100465.00
2018-09-10T20:30:41.061Z,100469.00
2018-09-10T20:33:11.211Z,100469.00
2018-09-10T20:35:41.424Z,100472.00
2018-09-10T20:38:11.723Z,100475.00
2018-09-10T20:40:41.898Z,100476.00
2018-09-10T20:43:12.084Z,100471.00
2018-09-10T20:45:42.313Z,100459.00
2018-09-10T20:48:12.716Z,100460.00
2018-09-10T20:50:42.862Z,100443.00
2018-09-10T20:53:13.924Z,100431.00
2018-09-10T20:55:44.432Z,100419.00
2018-09-10T20:58:14.699Z,100416.00
2018-09-10T21:00:44.913Z,100413.00
2018-09-10T21:03:14.969Z,100416.00
2018-09-10T21:05:45.389Z,100395.00
2018-09-10T21:08:15.566Z,100380.00
2018-09-10T21:10:45.816Z,100376.00
2018-09-10T21:13:15.950Z,100378.00
2018-09-10T21:15:46.131Z,100369.00
2018-09-10T21:18:16.152Z,100372.00
2018-09-10T21:20:46.422Z,100359.00
2018-09-10T21:23:17.353Z,100371.00
2018-09-10T21:25:47.387Z,100360.00
2018-09-10T21:28:17.391Z,100364.00
2018-09-10T21:30:47.785Z,100346.00
2018-09-10T21:33:17.988Z,100348.00
2018-09-10T21:35:48.325Z,100361.00
2018-09-10T21:38:18.927Z,100364.00
2018-09-10T21:40:48.966Z,100354.00
2018-09-10T21:43:19.133Z,100348.00
2018-09-10T21:45:49.055Z,100343.00
2018-09-10T21:48:19.619Z,100361.00
2018-09-10T21:50:49.807Z,100350.00
2018-09-10T21:53:20.367Z,100359.00
2018-09-10T21:55:50.820Z,100358.00
2018-09-10T21:58:20.970Z,100358.00
2018-09-10T22:00:54.064Z,100347.00
2018-09-10T22:03:24.459Z,100352.00
2018-09-10T22:05:55.340Z,100354.00
2018-09-10T22:08:28.599Z,100354.00
2018-09-10T22:10:59.563Z,100354.00
2018-09-10T22:13:31.053Z,100346.00
2018-09-10T22:16:01.134Z,100344.00
2018-09-10T22:18:32.254Z,100335.00
2018-09-10T22:21:02.744Z,100337.00
2018-09-10T22:23:33.875Z,100342.00
2018-09-10T22:26:04.379Z,100339.00
2018-09-10T22:28:34.951Z,100340.00
2018-09-10T22:31:05.230Z,100337.00
2018-09-10T22:33:36.435Z,100320.00
2018-09-10T22:36:07.066Z,100330.00
2018-09-10T22:38:37.605Z,100311.00
2018-09-10T22:41:07.546Z,100308.00
2018-09-10T22:43:38.524Z,100317.00
2018-09-10T22:46:09.568Z,100296.00
2018-09-10T22:48:40.552Z,100296.00
2018-09-10T22:51:10.953Z,100307.00
2018-09-10T22:53:41.122Z,100298.00
2018-09-10T22:56:12.134Z,100301.00
2018-09-10T22:58:42.145Z,100313.00
2018-09-10T23:01:12.494Z,100288.00
2018-09-10T23:03:42.702Z,100294.00
2018-09-10T23:06:13.579Z,100298.00
2018-09-10T23:08:43.649Z,100304.00
2018-09-10T23:11:13.941Z,100306.00
2018-09-10T23:13:43.884Z,100297.00
2018-09-10T23:16:13.984Z,100299.00
2018-09-10T23:18:44.264Z,100293.00
2018-09-10T23:21:14.839Z,100299.00
2018-09-10T23:23:45.127Z,100292.00
2018-09-10T23:26:15.201Z,100292.00
2018-09-10T23:28:45.454Z,100277.00
2018-09-10T23:31:15.721Z,100281.00
2018-09-10T23:33:46.641Z,100274.00
2018-09-10T23:36:16.826Z,100272.00
2018-09-10T23:38:48.473Z,100277.00
2018-09-10T23:41:19.667Z,100270.00
2018-09-10T23:43:50.121Z,100276.00
2018-09-10T23:46:20.639Z,100268.00
2018-09-10T23:48:51.168Z,100271.00
2018-09-10T23:51:21.211Z,100269.00
2018-09-10T23:53:51.514Z,100275.00
2018-09-10T23:56:21.655Z,100282.00
2018-09-10T23:58:51.708Z,100287.00
